sensor_id;sensor_type;location;lat;lon;timestamp;P1;durP1;ratioP1;P2;durP2;ratioP2
21868;SDS011;11099;41.564;23.296;2023-11-22T00:02:01;7.78;;;6.38;;
21868;SDS011;11099;41.564;23.296;2023-11-22T00:04:28;10.07;;;6.72;;
21868;SDS011;11099;41.564;23.296;2023-11-22T00:06:53;7.57;;;6.60;;
21868;SDS011;11099;41.564;23.296;2023-11-22T00:09:19;8.02;;;6.25;;
21868;SDS011;11099;41.564;23.296;2023-11-22T00:11:47;6.15;;;5.30;;
21868;SDS011;11099;41.564;23.296;2023-11-22T00:14:13;6.53;;;4.95;;
21868;SDS011;11099;41.564;23.296;2023-11-22T00:16:39;5.65;;;5.07;;
21868;SDS011;11099;41.564;23.296;2023-11-22T00:19:05;5.63;;;5.10;;
21868;SDS011;11099;41.564;23.296;2023-11-22T00:21:31;5.80;;;5.22;;
21868;SDS011;11099;41.564;23.296;2023-11-22T00:23:57;5.50;;;4.90;;
21868;SDS011;11099;41.564;23.296;2023-11-22T00:26:23;8.57;;;5.00;;
21868;SDS011;11099;41.564;23.296;2023-11-22T00:28:48;6.03;;;4.68;;
21868;SDS011;11099;41.564;23.296;2023-11-22T00:31:14;7.03;;;4.80;;
21868;SDS011;11099;41.564;23.296;2023-11-22T00:33:40;6.32;;;5.03;;
21868;SDS011;11099;41.564;23.296;2023-11-22T00:36:06;5.60;;;4.30;;
21868;SDS011;11099;41.564;23.296;2023-11-22T00:38:33;4.55;;;4.15;;
21868;SDS011;11099;41.564;23.296;2023-11-22T00:41:01;4.35;;;3.85;;
21868;SDS011;11099;41.564;23.296;2023-11-22T00:43:27;5.18;;;4.68;;
21868;SDS011;11099;41.564;23.296;2023-11-22T00:45:53;4.75;;;3.90;;
21868;SDS011;11099;41.564;23.296;2023-11-22T00:48:18;4.30;;;3.90;;
21868;SDS011;11099;41.564;23.296;2023-11-22T00:50:44;5.13;;;4.30;;
21868;SDS011;11099;41.564;23.296;2023-11-22T00:53:10;7.45;;;4.20;;
21868;SDS011;11099;41.564;23.296;2023-11-22T00:55:35;4.65;;;3.90;;
21868;SDS011;11099;41.564;23.296;2023-11-22T00:58:01;5.80;;;4.30;;
21868;SDS011;11099;41.564;23.296;2023-11-22T01:00:29;4.15;;;3.65;;
21868;SDS011;11099;41.564;23.296;2023-11-22T01:02:55;5.10;;;4.60;;
21868;SDS011;11099;41.564;23.296;2023-11-22T01:05:21;8.07;;;5.47;;
21868;SDS011;11099;41.564;23.296;2023-11-22T01:07:47;7.22;;;5.18;;
21868;SDS011;11099;41.564;23.296;2023-11-22T01:10:13;6.57;;;4.60;;
21868;SDS011;11099;41.564;23.296;2023-11-22T01:12:40;5.50;;;4.18;;
21868;SDS011;11099;41.564;23.296;2023-11-22T01:15:07;10.45;;;4.45;;
21868;SDS011;11099;41.564;23.296;2023-11-22T01:17:34;5.45;;;4.30;;
21868;SDS011;11099;41.564;23.296;2023-11-22T01:20:00;4.90;;;4.32;;
21868;SDS011;11099;41.564;23.296;2023-11-22T01:22:25;4.50;;;4.10;;
21868;SDS011;11099;41.564;23.296;2023-11-22T01:24:52;4.95;;;4.55;;
21868;SDS011;11099;41.564;23.296;2023-11-22T01:27:18;7.22;;;5.60;;
21868;SDS011;11099;41.564;23.296;2023-11-22T01:29:44;7.95;;;4.78;;
21868;SDS011;11099;41.564;23.296;2023-11-22T01:32:10;4.70;;;4.30;;
21868;SDS011;11099;41.564;23.296;2023-11-22T01:34:36;4.00;;;3.60;;
21868;SDS011;11099;41.564;23.296;2023-11-22T01:37:02;3.95;;;3.65;;
21868;SDS011;11099;41.564;23.296;2023-11-22T01:39:28;4.68;;;4.18;;
21868;SDS011;11099;41.564;23.296;2023-11-22T01:41:53;7.57;;;4.45;;
21868;SDS011;11099;41.564;23.296;2023-11-22T01:44:19;7.97;;;4.60;;
21868;SDS011;11099;41.564;23.296;2023-11-22T01:46:45;7.60;;;4.32;;
21868;SDS011;11099;41.564;23.296;2023-11-22T01:49:10;4.75;;;4.32;;
21868;SDS011;11099;41.564;23.296;2023-11-22T01:51:40;8.85;;;4.78;;
21868;SDS011;11099;41.564;23.296;2023-11-22T01:54:06;5.22;;;4.28;;
21868;SDS011;11099;41.564;23.296;2023-11-22T01:56:34;3.97;;;3.67;;
21868;SDS011;11099;41.564;23.296;2023-11-22T01:59:02;4.80;;;4.30;;
21868;SDS011;11099;41.564;23.296;2023-11-22T02:01:29;7.97;;;4.28;;
21868;SDS011;11099;41.564;23.296;2023-11-22T02:03:55;6.07;;;4.93;;
21868;SDS011;11099;41.564;23.296;2023-11-22T02:06:21;11.98;;;5.47;;
21868;SDS011;11099;41.564;23.296;2023-11-22T02:08:47;8.75;;;5.47;;
21868;SDS011;11099;41.564;23.296;2023-11-22T02:11:13;6.95;;;5.53;;
21868;SDS011;11099;41.564;23.296;2023-11-22T02:13:47;8.05;;;6.03;;
21868;SDS011;11099;41.564;23.296;2023-11-22T02:16:13;7.47;;;5.60;;
21868;SDS011;11099;41.564;23.296;2023-11-22T02:18:39;6.88;;;5.25;;
21868;SDS011;11099;41.564;23.296;2023-11-22T02:21:07;7.68;;;5.35;;
21868;SDS011;11099;41.564;23.296;2023-11-22T02:23:32;6.55;;;4.78;;
21868;SDS011;11099;41.564;23.296;2023-11-22T02:25:58;7.25;;;5.07;;
21868;SDS011;11099;41.564;23.296;2023-11-22T02:28:24;6.75;;;4.97;;
21868;SDS011;11099;41.564;23.296;2023-11-22T02:30:49;5.80;;;5.00;;
21868;SDS011;11099;41.564;23.296;2023-11-22T02:33:15;6.15;;;5.13;;
21868;SDS011;11099;41.564;23.296;2023-11-22T02:35:40;6.35;;;4.22;;
21868;SDS011;11099;41.564;23.296;2023-11-22T02:38:07;4.82;;;4.25;;
21868;SDS011;11099;41.564;23.296;2023-11-22T02:40:32;4.68;;;4.15;;
21868;SDS011;11099;41.564;23.296;2023-11-22T02:42:58;6.10;;;4.32;;
21868;SDS011;11099;41.564;23.296;2023-11-22T02:45:30;4.97;;;4.38;;
21868;SDS011;11099;41.564;23.296;2023-11-22T02:47:56;4.93;;;3.88;;
21868;SDS011;11099;41.564;23.296;2023-11-22T02:50:21;4.85;;;4.28;;
21868;SDS011;11099;41.564;23.296;2023-11-22T02:52:47;4.30;;;3.88;;
21868;SDS011;11099;41.564;23.296;2023-11-22T02:55:13;4.25;;;3.67;;
21868;SDS011;11099;41.564;23.296;2023-11-22T02:57:41;5.20;;;4.00;;
21868;SDS011;11099;41.564;23.296;2023-11-22T03:00:06;5.13;;;4.07;;
21868;SDS011;11099;41.564;23.296;2023-11-22T03:02:33;6.05;;;4.68;;
21868;SDS011;11099;41.564;23.296;2023-11-22T03:04:59;5.60;;;4.55;;
21868;SDS011;11099;41.564;23.296;2023-11-22T03:07:25;5.68;;;4.57;;
21868;SDS011;11099;41.564;23.296;2023-11-22T03:09:51;7.50;;;5.07;;
21868;SDS011;11099;41.564;23.296;2023-11-22T03:12:18;4.93;;;4.20;;
21868;SDS011;11099;41.564;23.296;2023-11-22T03:14:45;5.68;;;4.85;;
21868;SDS011;11099;41.564;23.296;2023-11-22T03:17:17;6.18;;;4.82;;
21868;SDS011;11099;41.564;23.296;2023-11-22T03:19:43;6.65;;;5.32;;
21868;SDS011;11099;41.564;23.296;2023-11-22T03:22:10;6.35;;;4.95;;
21868;SDS011;11099;41.564;23.296;2023-11-22T03:24:35;7.95;;;5.50;;
21868;SDS011;11099;41.564;23.296;2023-11-22T03:27:03;6.97;;;6.18;;
21868;SDS011;11099;41.564;23.296;2023-11-22T03:29:28;6.78;;;6.07;;
21868;SDS011;11099;41.564;23.296;2023-11-22T03:31:54;6.97;;;5.97;;
21868;SDS011;11099;41.564;23.296;2023-11-22T03:34:20;8.85;;;6.40;;
21868;SDS011;11099;41.564;23.296;2023-11-22T03:36:45;6.70;;;5.85;;
21868;SDS011;11099;41.564;23.296;2023-11-22T03:39:11;7.05;;;6.20;;
21868;SDS011;11099;41.564;23.296;2023-11-22T03:41:39;6.95;;;6.10;;
21868;SDS011;11099;41.564;23.296;2023-11-22T03:44:05;6.78;;;6.18;;
21868;SDS011;11099;41.564;23.296;2023-11-22T03:46:37;7.10;;;6.20;;
21868;SDS011;11099;41.564;23.296;2023-11-22T03:49:06;6.47;;;5.88;;
21868;SDS011;11099;41.564;23.296;2023-11-22T03:51:33;7.47;;;5.65;;
21868;SDS011;11099;41.564;23.296;2023-11-22T03:53:59;7.60;;;6.07;;
21868;SDS011;11099;41.564;23.296;2023-11-22T03:56:25;6.93;;;5.70;;
21868;SDS011;11099;41.564;23.296;2023-11-22T03:58:51;11.68;;;7.75;;
21868;SDS011;11099;41.564;23.296;2023-11-22T04:01:17;8.18;;;6.32;;
21868;SDS011;11099;41.564;23.296;2023-11-22T04:03:43;10.98;;;7.07;;
21868;SDS011;11099;41.564;23.296;2023-11-22T04:06:09;11.63;;;7.50;;
21868;SDS011;11099;41.564;23.296;2023-11-22T04:08:35;10.75;;;7.05;;
21868;SDS011;11099;41.564;23.296;2023-11-22T04:11:00;8.10;;;6.40;;
21868;SDS011;11099;41.564;23.296;2023-11-22T04:13:27;8.68;;;6.22;;
21868;SDS011;11099;41.564;23.296;2023-11-22T04:15:52;10.88;;;6.65;;
21868;SDS011;11099;41.564;23.296;2023-11-22T04:18:18;16.45;;;7.32;;
21868;SDS011;11099;41.564;23.296;2023-11-22T04:20:43;7.95;;;6.57;;
21868;SDS011;11099;41.564;23.296;2023-11-22T04:23:09;11.02;;;7.20;;
21868;SDS011;11099;41.564;23.296;2023-11-22T04:25:39;9.70;;;6.68;;
21868;SDS011;11099;41.564;23.296;2023-11-22T04:28:07;14.25;;;9.48;;
21868;SDS011;11099;41.564;23.296;2023-11-22T04:30:35;10.15;;;7.57;;
21868;SDS011;11099;41.564;23.296;2023-11-22T04:33:00;26.55;;;14.35;;
21868;SDS011;11099;41.564;23.296;2023-11-22T04:35:27;28.35;;;16.30;;
21868;SDS011;11099;41.564;23.296;2023-11-22T04:37:52;13.82;;;8.60;;
21868;SDS011;11099;41.564;23.296;2023-11-22T04:40:20;9.35;;;5.78;;
21868;SDS011;11099;41.564;23.296;2023-11-22T04:42:46;6.07;;;5.47;;
21868;SDS011;11099;41.564;23.296;2023-11-22T04:45:12;6.68;;;5.97;;
21868;SDS011;11099;41.564;23.296;2023-11-22T04:47:38;8.65;;;5.65;;
21868;SDS011;11099;41.564;23.296;2023-11-22T04:50:03;6.50;;;5.85;;
21868;SDS011;11099;41.564;23.296;2023-11-22T04:52:29;6.75;;;6.15;;
21868;SDS011;11099;41.564;23.296;2023-11-22T04:54:56;6.85;;;6.10;;
21868;SDS011;11099;41.564;23.296;2023-11-22T04:57:21;7.07;;;6.38;;
21868;SDS011;11099;41.564;23.296;2023-11-22T04:59:47;6.15;;;5.65;;
21868;SDS011;11099;41.564;23.296;2023-11-22T05:02:12;8.85;;;6.07;;
21868;SDS011;11099;41.564;23.296;2023-11-22T05:04:38;8.40;;;5.95;;
21868;SDS011;11099;41.564;23.296;2023-11-22T05:07:03;7.28;;;6.20;;
21868;SDS011;11099;41.564;23.296;2023-11-22T05:09:29;10.23;;;8.18;;
21868;SDS011;11099;41.564;23.296;2023-11-22T05:11:54;14.95;;;7.75;;
21868;SDS011;11099;41.564;23.296;2023-11-22T05:14:20;11.88;;;8.60;;
21868;SDS011;11099;41.564;23.296;2023-11-22T05:16:45;11.23;;;9.02;;
21868;SDS011;11099;41.564;23.296;2023-11-22T05:19:11;11.38;;;9.20;;
21868;SDS011;11099;41.564;23.296;2023-11-22T05:21:37;11.05;;;7.65;;
21868;SDS011;11099;41.564;23.296;2023-11-22T05:24:02;7.47;;;5.47;;
21868;SDS011;11099;41.564;23.296;2023-11-22T05:26:28;6.90;;;6.18;;
21868;SDS011;11099;41.564;23.296;2023-11-22T05:28:54;9.02;;;8.05;;
21868;SDS011;11099;41.564;23.296;2023-11-22T05:31:20;8.43;;;6.70;;
21868;SDS011;11099;41.564;23.296;2023-11-22T05:33:46;10.40;;;6.15;;
21868;SDS011;11099;41.564;23.296;2023-11-22T05:36:11;7.75;;;6.80;;
21868;SDS011;11099;41.564;23.296;2023-11-22T05:38:37;8.07;;;6.45;;
21868;SDS011;11099;41.564;23.296;2023-11-22T05:41:03;8.57;;;6.57;;
21868;SDS011;11099;41.564;23.296;2023-11-22T05:43:29;8.57;;;6.60;;
21868;SDS011;11099;41.564;23.296;2023-11-22T05:45:54;7.32;;;5.45;;
21868;SDS011;11099;41.564;23.296;2023-11-22T05:48:20;8.50;;;7.35;;
21868;SDS011;11099;41.564;23.296;2023-11-22T05:50:46;9.82;;;7.13;;
21868;SDS011;11099;41.564;23.296;2023-11-22T05:53:13;16.27;;;11.20;;
21868;SDS011;11099;41.564;23.296;2023-11-22T05:55:44;23.73;;;16.58;;
21868;SDS011;11099;41.564;23.296;2023-11-22T05:58:14;22.80;;;13.82;;
21868;SDS011;11099;41.564;23.296;2023-11-22T06:00:46;13.70;;;8.77;;
21868;SDS011;11099;41.564;23.296;2023-11-22T06:03:12;18.40;;;14.35;;
21868;SDS011;11099;41.564;23.296;2023-11-22T06:05:38;15.57;;;11.13;;
21868;SDS011;11099;41.564;23.296;2023-11-22T06:08:05;12.60;;;10.63;;
21868;SDS011;11099;41.564;23.296;2023-11-22T06:10:31;10.02;;;8.95;;
21868;SDS011;11099;41.564;23.296;2023-11-22T06:12:56;8.90;;;7.93;;
21868;SDS011;11099;41.564;23.296;2023-11-22T06:15:22;11.75;;;10.40;;
21868;SDS011;11099;41.564;23.296;2023-11-22T06:17:48;14.68;;;10.88;;
21868;SDS011;11099;41.564;23.296;2023-11-22T06:20:14;19.70;;;14.90;;
21868;SDS011;11099;41.564;23.296;2023-11-22T06:22:40;13.32;;;11.93;;
21868;SDS011;11099;41.564;23.296;2023-11-22T06:25:09;24.55;;;18.45;;
21868;SDS011;11099;41.564;23.296;2023-11-22T06:27:36;8.32;;;6.30;;
21868;SDS011;11099;41.564;23.296;2023-11-22T06:30:01;7.20;;;6.47;;
21868;SDS011;11099;41.564;23.296;2023-11-22T06:32:28;16.30;;;9.80;;
21868;SDS011;11099;41.564;23.296;2023-11-22T06:34:54;33.40;;;27.30;;
21868;SDS011;11099;41.564;23.296;2023-11-22T06:37:19;16.73;;;14.50;;
21868;SDS011;11099;41.564;23.296;2023-11-22T06:39:46;14.43;;;10.48;;
21868;SDS011;11099;41.564;23.296;2023-11-22T06:42:11;11.05;;;7.03;;
21868;SDS011;11099;41.564;23.296;2023-11-22T06:44:38;9.52;;;7.25;;
21868;SDS011;11099;41.564;23.296;2023-11-22T06:47:05;14.68;;;12.70;;
21868;SDS011;11099;41.564;23.296;2023-11-22T06:49:31;12.40;;;10.48;;
21868;SDS011;11099;41.564;23.296;2023-11-22T06:51:57;12.57;;;9.70;;
21868;SDS011;11099;41.564;23.296;2023-11-22T06:54:22;11.80;;;9.52;;
21868;SDS011;11099;41.564;23.296;2023-11-22T06:56:48;8.20;;;7.40;;
21868;SDS011;11099;41.564;23.296;2023-11-22T06:59:15;11.27;;;7.70;;
21868;SDS011;11099;41.564;23.296;2023-11-22T07:01:40;8.85;;;7.68;;
21868;SDS011;11099;41.564;23.296;2023-11-22T07:04:06;13.23;;;8.77;;
21868;SDS011;11099;41.564;23.296;2023-11-22T07:06:32;13.55;;;9.90;;
21868;SDS011;11099;41.564;23.296;2023-11-22T07:08:57;12.90;;;11.25;;
21868;SDS011;11099;41.564;23.296;2023-11-22T07:11:24;16.48;;;12.73;;
21868;SDS011;11099;41.564;23.296;2023-11-22T07:13:51;13.05;;;11.13;;
21868;SDS011;11099;41.564;23.296;2023-11-22T07:16:17;18.30;;;13.52;;
21868;SDS011;11099;41.564;23.296;2023-11-22T07:18:44;16.98;;;13.48;;
21868;SDS011;11099;41.564;23.296;2023-11-22T07:21:10;14.65;;;12.13;;
21868;SDS011;11099;41.564;23.296;2023-11-22T07:23:37;15.80;;;13.18;;
21868;SDS011;11099;41.564;23.296;2023-11-22T07:26:03;14.13;;;12.68;;
21868;SDS011;11099;41.564;23.296;2023-11-22T07:28:29;15.88;;;13.27;;
21868;SDS011;11099;41.564;23.296;2023-11-22T07:30:56;14.32;;;12.57;;
21868;SDS011;11099;41.564;23.296;2023-11-22T07:33:21;14.60;;;12.23;;
21868;SDS011;11099;41.564;23.296;2023-11-22T07:35:47;12.38;;;11.10;;
21868;SDS011;11099;41.564;23.296;2023-11-22T07:38:13;12.70;;;11.27;;
21868;SDS011;11099;41.564;23.296;2023-11-22T07:40:39;14.05;;;11.95;;
21868;SDS011;11099;41.564;23.296;2023-11-22T07:43:06;14.00;;;11.00;;
21868;SDS011;11099;41.564;23.296;2023-11-22T07:45:32;14.32;;;11.75;;
21868;SDS011;11099;41.564;23.296;2023-11-22T07:47:58;14.77;;;11.35;;
21868;SDS011;11099;41.564;23.296;2023-11-22T07:50:25;13.75;;;11.25;;
21868;SDS011;11099;41.564;23.296;2023-11-22T07:52:51;15.55;;;11.45;;
21868;SDS011;11099;41.564;23.296;2023-11-22T07:55:16;12.40;;;10.48;;
21868;SDS011;11099;41.564;23.296;2023-11-22T07:57:43;14.70;;;10.45;;
21868;SDS011;11099;41.564;23.296;2023-11-22T08:00:10;14.27;;;10.75;;
21868;SDS011;11099;41.564;23.296;2023-11-22T08:02:36;12.25;;;9.77;;
21868;SDS011;11099;41.564;23.296;2023-11-22T08:05:08;12.48;;;9.68;;
21868;SDS011;11099;41.564;23.296;2023-11-22T08:07:36;13.25;;;10.23;;
21868;SDS011;11099;41.564;23.296;2023-11-22T08:10:07;10.25;;;9.10;;
21868;SDS011;11099;41.564;23.296;2023-11-22T08:12:44;12.10;;;9.98;;
21868;SDS011;11099;41.564;23.296;2023-11-22T08:15:10;13.05;;;11.27;;
21868;SDS011;11099;41.564;23.296;2023-11-22T08:17:38;13.18;;;11.60;;
21868;SDS011;11099;41.564;23.296;2023-11-22T08:20:05;12.82;;;9.77;;
21868;SDS011;11099;41.564;23.296;2023-11-22T08:22:32;12.20;;;8.88;;
21868;SDS011;11099;41.564;23.296;2023-11-22T08:25:03;8.63;;;7.75;;
21868;SDS011;11099;41.564;23.296;2023-11-22T08:27:29;8.85;;;6.35;;
21868;SDS011;11099;41.564;23.296;2023-11-22T08:29:56;10.57;;;6.85;;
21868;SDS011;11099;41.564;23.296;2023-11-22T08:32:21;7.80;;;6.90;;
21868;SDS011;11099;41.564;23.296;2023-11-22T08:34:50;12.10;;;7.43;;
21868;SDS011;11099;41.564;23.296;2023-11-22T08:37:16;7.63;;;6.82;;
21868;SDS011;11099;41.564;23.296;2023-11-22T08:39:42;10.95;;;7.85;;
21868;SDS011;11099;41.564;23.296;2023-11-22T08:42:08;10.25;;;8.02;;
21868;SDS011;11099;41.564;23.296;2023-11-22T08:44:37;10.68;;;7.97;;
21868;SDS011;11099;41.564;23.296;2023-11-22T08:47:03;8.32;;;7.50;;
21868;SDS011;11099;41.564;23.296;2023-11-22T08:49:29;8.02;;;7.22;;
21868;SDS011;11099;41.564;23.296;2023-11-22T08:51:58;9.52;;;7.50;;
21868;SDS011;11099;41.564;23.296;2023-11-22T08:54:28;10.05;;;8.27;;
21868;SDS011;11099;41.564;23.296;2023-11-22T08:56:55;11.88;;;8.45;;
21868;SDS011;11099;41.564;23.296;2023-11-22T08:59:23;9.77;;;8.07;;
21868;SDS011;11099;41.564;23.296;2023-11-22T09:01:49;7.75;;;6.95;;
21868;SDS011;11099;41.564;23.296;2023-11-22T09:04:14;8.73;;;7.53;;
21868;SDS011;11099;41.564;23.296;2023-11-22T09:06:41;6.93;;;6.22;;
21868;SDS011;11099;41.564;23.296;2023-11-22T09:09:07;12.65;;;10.52;;
21868;SDS011;11099;41.564;23.296;2023-11-22T09:11:33;14.68;;;12.63;;
21868;SDS011;11099;41.564;23.296;2023-11-22T09:14:00;13.88;;;11.68;;
21868;SDS011;11099;41.564;23.296;2023-11-22T09:16:34;12.18;;;9.50;;
21868;SDS011;11099;41.564;23.296;2023-11-22T09:19:04;7.78;;;6.97;;
21868;SDS011;11099;41.564;23.296;2023-11-22T09:21:32;6.63;;;5.95;;
21868;SDS011;11099;41.564;23.296;2023-11-22T09:23:57;7.75;;;6.45;;
21868;SDS011;11099;41.564;23.296;2023-11-22T09:26:24;7.25;;;6.15;;
21868;SDS011;11099;41.564;23.296;2023-11-22T09:28:50;7.38;;;5.85;;
21868;SDS011;11099;41.564;23.296;2023-11-22T09:31:15;6.20;;;5.32;;
21868;SDS011;11099;41.564;23.296;2023-11-22T09:33:45;6.95;;;5.93;;
21868;SDS011;11099;41.564;23.296;2023-11-22T09:36:12;5.03;;;4.63;;
21868;SDS011;11099;41.564;23.296;2023-11-22T09:38:38;5.57;;;3.90;;
21868;SDS011;11099;41.564;23.296;2023-11-22T09:41:04;5.57;;;3.67;;
21868;SDS011;11099;41.564;23.296;2023-11-22T09:43:30;4.75;;;3.70;;
21868;SDS011;11099;41.564;23.296;2023-11-22T09:45:56;3.97;;;3.58;;
21868;SDS011;11099;41.564;23.296;2023-11-22T09:48:22;4.45;;;4.05;;
21868;SDS011;11099;41.564;23.296;2023-11-22T09:53:57;14.95;;;13.23;;
21868;SDS011;11099;41.564;23.296;2023-11-22T09:56:25;18.77;;;14.20;;
21868;SDS011;11099;41.564;23.296;2023-11-22T09:58:55;18.45;;;15.95;;
21868;SDS011;11099;41.564;23.296;2023-11-22T10:01:25;15.68;;;13.40;;
21868;SDS011;11099;41.564;23.296;2023-11-22T10:03:53;17.80;;;12.95;;
21868;SDS011;11099;41.564;23.296;2023-11-22T10:06:19;19.80;;;15.50;;
21868;SDS011;11099;41.564;23.296;2023-11-22T10:08:46;22.67;;;18.65;;
21868;SDS011;11099;41.564;23.296;2023-11-22T10:11:17;19.33;;;17.10;;
21868;SDS011;11099;41.564;23.296;2023-11-22T10:13:45;19.33;;;15.90;;
21868;SDS011;11099;41.564;23.296;2023-11-22T10:16:13;34.55;;;27.10;;
21868;SDS011;11099;41.564;23.296;2023-11-22T10:18:44;35.40;;;25.92;;
21868;SDS011;11099;41.564;23.296;2023-11-22T10:21:21;57.17;;;43.75;;
21868;SDS011;11099;41.564;23.296;2023-11-22T10:23:50;26.83;;;23.10;;
21868;SDS011;11099;41.564;23.296;2023-11-22T10:26:21;29.38;;;25.48;;
21868;SDS011;11099;41.564;23.296;2023-11-22T10:28:50;37.95;;;27.80;;
21868;SDS011;11099;41.564;23.296;2023-11-22T10:33:43;67.80;;;51.08;;
21868;SDS011;11099;41.564;23.296;2023-11-22T10:36:09;55.42;;;39.28;;
21868;SDS011;11099;41.564;23.296;2023-11-22T10:38:35;40.65;;;34.58;;
21868;SDS011;11099;41.564;23.296;2023-11-22T10:41:07;45.88;;;33.60;;
21868;SDS011;11099;41.564;23.296;2023-11-22T10:43:36;37.25;;;29.85;;
21868;SDS011;11099;41.564;23.296;2023-11-22T10:46:03;51.63;;;40.92;;
21868;SDS011;11099;41.564;23.296;2023-11-22T10:48:34;24.58;;;21.77;;
21868;SDS011;11099;41.564;23.296;2023-11-22T10:51:03;29.45;;;21.92;;
21868;SDS011;11099;41.564;23.296;2023-11-22T10:53:35;41.38;;;31.23;;
21868;SDS011;11099;41.564;23.296;2023-11-22T10:56:14;28.15;;;22.48;;
21868;SDS011;11099;41.564;23.296;2023-11-22T10:58:46;28.25;;;25.08;;
21868;SDS011;11099;41.564;23.296;2023-11-22T11:01:14;23.58;;;19.45;;
21868;SDS011;11099;41.564;23.296;2023-11-22T11:03:41;42.38;;;33.63;;
21868;SDS011;11099;41.564;23.296;2023-11-22T11:06:14;20.83;;;17.80;;
21868;SDS011;11099;41.564;23.296;2023-11-22T11:08:42;21.67;;;17.60;;
21868;SDS011;11099;41.564;23.296;2023-11-22T11:11:10;9.15;;;8.25;;
21868;SDS011;11099;41.564;23.296;2023-11-22T11:13:38;8.75;;;6.30;;
21868;SDS011;11099;41.564;23.296;2023-11-22T11:16:05;14.53;;;10.20;;
21868;SDS011;11099;41.564;23.296;2023-11-22T11:18:32;10.23;;;9.07;;
21868;SDS011;11099;41.564;23.296;2023-11-22T11:20:58;17.52;;;15.55;;
21868;SDS011;11099;41.564;23.296;2023-11-22T11:23:27;30.00;;;22.33;;
21868;SDS011;11099;41.564;23.296;2023-11-22T11:25:57;23.90;;;19.42;;
21868;SDS011;11099;41.564;23.296;2023-11-22T11:28:41;15.15;;;12.57;;
21868;SDS011;11099;41.564;23.296;2023-11-22T11:31:14;29.65;;;24.23;;
21868;SDS011;11099;41.564;23.296;2023-11-22T11:36:15;50.65;;;42.53;;
21868;SDS011;11099;41.564;23.296;2023-11-22T11:38:48;62.30;;;46.95;;
21868;SDS011;11099;41.564;23.296;2023-11-22T11:41:14;58.20;;;45.97;;
21868;SDS011;11099;41.564;23.296;2023-11-22T11:43:44;53.03;;;44.15;;
21868;SDS011;11099;41.564;23.296;2023-11-22T11:46:16;46.13;;;39.20;;
21868;SDS011;11099;41.564;23.296;2023-11-22T11:48:52;49.05;;;36.85;;
21868;SDS011;11099;41.564;23.296;2023-11-22T11:51:20;43.35;;;36.03;;
21868;SDS011;11099;41.564;23.296;2023-11-22T11:53:47;36.60;;;32.25;;
21868;SDS011;11099;41.564;23.296;2023-11-22T11:56:14;44.30;;;34.95;;
21868;SDS011;11099;41.564;23.296;2023-11-22T11:58:41;44.38;;;34.78;;
21868;SDS011;11099;41.564;23.296;2023-11-22T12:01:08;43.65;;;36.50;;
21868;SDS011;11099;41.564;23.296;2023-11-22T12:03:37;39.42;;;31.75;;
21868;SDS011;11099;41.564;23.296;2023-11-22T12:06:04;25.73;;;21.75;;
21868;SDS011;11099;41.564;23.296;2023-11-22T12:08:30;17.55;;;14.15;;
21868;SDS011;11099;41.564;23.296;2023-11-22T12:11:01;17.05;;;15.25;;
21868;SDS011;11099;41.564;23.296;2023-11-22T12:13:29;21.13;;;17.98;;
21868;SDS011;11099;41.564;23.296;2023-11-22T12:15:55;14.32;;;12.45;;
21868;SDS011;11099;41.564;23.296;2023-11-22T12:18:21;12.10;;;10.73;;
21868;SDS011;11099;41.564;23.296;2023-11-22T12:20:56;14.30;;;9.45;;
21868;SDS011;11099;41.564;23.296;2023-11-22T12:23:26;8.13;;;5.90;;
21868;SDS011;11099;41.564;23.296;2023-11-22T12:25:53;8.18;;;5.68;;
21868;SDS011;11099;41.564;23.296;2023-11-22T12:28:22;7.85;;;6.90;;
21868;SDS011;11099;41.564;23.296;2023-11-22T12:30:48;8.23;;;7.22;;
21868;SDS011;11099;41.564;23.296;2023-11-22T12:33:16;8.93;;;7.63;;
21868;SDS011;11099;41.564;23.296;2023-11-22T12:35:43;7.93;;;7.22;;
21868;SDS011;11099;41.564;23.296;2023-11-22T12:38:09;7.95;;;6.10;;
21868;SDS011;11099;41.564;23.296;2023-11-22T12:40:35;7.72;;;6.45;;
21868;SDS011;11099;41.564;23.296;2023-11-22T12:43:01;5.85;;;5.32;;
21868;SDS011;11099;41.564;23.296;2023-11-22T12:45:29;6.18;;;5.03;;
21868;SDS011;11099;41.564;23.296;2023-11-22T12:47:57;19.25;;;14.63;;
21868;SDS011;11099;41.564;23.296;2023-11-22T12:53:12;23.52;;;18.63;;
21868;SDS011;11099;41.564;23.296;2023-11-22T12:55:43;51.05;;;37.05;;
21868;SDS011;11099;41.564;23.296;2023-11-22T12:58:10;70.50;;;53.80;;
21868;SDS011;11099;41.564;23.296;2023-11-22T13:00:36;66.03;;;51.83;;
21868;SDS011;11099;41.564;23.296;2023-11-22T13:03:01;63.90;;;48.42;;
21868;SDS011;11099;41.564;23.296;2023-11-22T13:05:27;53.58;;;39.10;;
21868;SDS011;11099;41.564;23.296;2023-11-22T13:07:53;45.72;;;36.85;;
21868;SDS011;11099;41.564;23.296;2023-11-22T13:10:19;60.78;;;49.45;;
21868;SDS011;11099;41.564;23.296;2023-11-22T13:12:50;35.30;;;30.63;;
21868;SDS011;11099;41.564;23.296;2023-11-22T13:15:15;58.63;;;44.78;;
21868;SDS011;11099;41.564;23.296;2023-11-22T13:17:41;40.08;;;32.35;;
21868;SDS011;11099;41.564;23.296;2023-11-22T13:20:07;39.47;;;33.00;;
21868;SDS011;11099;41.564;23.296;2023-11-22T13:22:43;46.83;;;40.25;;
21868;SDS011;11099;41.564;23.296;2023-11-22T13:25:12;42.08;;;34.38;;
21868;SDS011;11099;41.564;23.296;2023-11-22T13:27:42;48.90;;;35.85;;
21868;SDS011;11099;41.564;23.296;2023-11-22T13:30:08;29.85;;;26.58;;
21868;SDS011;11099;41.564;23.296;2023-11-22T13:32:33;33.75;;;27.13;;
21868;SDS011;11099;41.564;23.296;2023-11-22T13:35:00;34.10;;;27.38;;
21868;SDS011;11099;41.564;23.296;2023-11-22T13:37:26;37.92;;;29.10;;
21868;SDS011;11099;41.564;23.296;2023-11-22T13:39:54;35.55;;;30.02;;
21868;SDS011;11099;41.564;23.296;2023-11-22T13:42:20;41.15;;;32.22;;
21868;SDS011;11099;41.564;23.296;2023-11-22T13:44:45;37.42;;;30.80;;
21868;SDS011;11099;41.564;23.296;2023-11-22T13:47:12;45.10;;;38.03;;
21868;SDS011;11099;41.564;23.296;2023-11-22T13:49:39;74.88;;;52.45;;
21868;SDS011;11099;41.564;23.296;2023-11-22T13:52:05;61.25;;;47.85;;
21868;SDS011;11099;41.564;23.296;2023-11-22T13:54:30;49.33;;;37.30;;
21868;SDS011;11099;41.564;23.296;2023-11-22T13:56:58;47.95;;;36.10;;
21868;SDS011;11099;41.564;23.296;2023-11-22T13:59:24;51.67;;;40.90;;
21868;SDS011;11099;41.564;23.296;2023-11-22T14:01:50;57.50;;;39.63;;
21868;SDS011;11099;41.564;23.296;2023-11-22T14:04:16;39.88;;;32.38;;
21868;SDS011;11099;41.564;23.296;2023-11-22T14:06:41;31.70;;;28.25;;
21868;SDS011;11099;41.564;23.296;2023-11-22T14:09:07;37.63;;;31.52;;
21868;SDS011;11099;41.564;23.296;2023-11-22T14:11:33;44.35;;;36.45;;
21868;SDS011;11099;41.564;23.296;2023-11-22T14:14:01;39.20;;;32.22;;
21868;SDS011;11099;41.564;23.296;2023-11-22T14:16:28;41.08;;;31.33;;
21868;SDS011;11099;41.564;23.296;2023-11-22T14:18:56;49.70;;;35.53;;
21868;SDS011;11099;41.564;23.296;2023-11-22T14:21:22;59.35;;;45.60;;
21868;SDS011;11099;41.564;23.296;2023-11-22T14:23:50;49.35;;;37.03;;
21868;SDS011;11099;41.564;23.296;2023-11-22T14:26:15;42.28;;;33.63;;
21868;SDS011;11099;41.564;23.296;2023-11-22T14:28:41;54.17;;;46.10;;
21868;SDS011;11099;41.564;23.296;2023-11-22T14:31:08;49.28;;;41.33;;
21868;SDS011;11099;41.564;23.296;2023-11-22T14:33:34;46.03;;;38.10;;